sensor_id;sensor_type;location;lat;lon;timestamp;P1;durP1;ratioP1;P2;durP2;ratioP2
67902;SDS011;54708;43.612;1.568;2023-06-14T00:00:09;5.20;;;3.80;;
67902;SDS011;54708;43.612;1.568;2023-06-14T00:02:35;5.20;;;3.30;;
67902;SDS011;54708;43.612;1.568;2023-06-14T00:05:00;3.38;;;3.05;;
67902;SDS011;54708;43.612;1.568;2023-06-14T00:07:36;3.75;;;3.03;;
67902;SDS011;54708;43.612;1.568;2023-06-14T00:10:03;4.88;;;3.42;;
67902;SDS011;54708;43.612;1.568;2023-06-14T00:12:30;4.55;;;3.28;;
67902;SDS011;54708;43.612;1.568;2023-06-14T00:14:56;2.92;;;2.63;;
67902;SDS011;54708;43.612;1.568;2023-06-14T00:17:21;2.90;;;2.60;;
67902;SDS011;54708;43.612;1.568;2023-06-14T00:19:47;5.95;;;3.75;;
67902;SDS011;54708;43.612;1.568;2023-06-14T00:22:13;7.00;;;3.17;;
67902;SDS011;54708;43.612;1.568;2023-06-14T00:24:38;5.63;;;3.72;;
67902;SDS011;54708;43.612;1.568;2023-06-14T00:27:04;3.47;;;3.17;;
67902;SDS011;54708;43.612;1.568;2023-06-14T00:29:30;4.57;;;3.13;;
67902;SDS011;54708;43.612;1.568;2023-06-14T00:31:56;4.65;;;3.75;;
67902;SDS011;54708;43.612;1.568;2023-06-14T00:34:21;3.10;;;2.80;;
67902;SDS011;54708;43.612;1.568;2023-06-14T00:36:46;3.92;;;3.00;;
67902;SDS011;54708;43.612;1.568;2023-06-14T00:39:12;4.43;;;4.03;;
67902;SDS011;54708;43.612;1.568;2023-06-14T00:41:39;5.03;;;3.60;;
67902;SDS011;54708;43.612;1.568;2023-06-14T00:44:04;8.10;;;5.38;;
67902;SDS011;54708;43.612;1.568;2023-06-14T00:46:30;4.47;;;3.85;;
67902;SDS011;54708;43.612;1.568;2023-06-14T00:48:56;4.43;;;3.90;;
67902;SDS011;54708;43.612;1.568;2023-06-14T00:51:21;7.22;;;4.32;;
67902;SDS011;54708;43.612;1.568;2023-06-14T00:53:47;5.82;;;3.85;;
67902;SDS011;54708;43.612;1.568;2023-06-14T00:56:13;3.97;;;3.40;;
67902;SDS011;54708;43.612;1.568;2023-06-14T00:58:39;4.85;;;4.07;;
67902;SDS011;54708;43.612;1.568;2023-06-14T01:01:05;4.13;;;3.63;;
67902;SDS011;54708;43.612;1.568;2023-06-14T01:03:31;4.85;;;3.85;;
67902;SDS011;54708;43.612;1.568;2023-06-14T01:06:41;6.60;;;4.53;;
67902;SDS011;54708;43.612;1.568;2023-06-14T01:09:06;9.35;;;4.95;;
67902;SDS011;54708;43.612;1.568;2023-06-14T01:12:27;6.65;;;4.38;;
67902;SDS011;54708;43.612;1.568;2023-06-14T01:14:31;5.55;;;4.50;;
67902;SDS011;54708;43.612;1.568;2023-06-14T01:16:57;5.75;;;4.72;;
67902;SDS011;54708;43.612;1.568;2023-06-14T01:19:24;6.75;;;4.80;;
67902;SDS011;54708;43.612;1.568;2023-06-14T01:21:50;8.75;;;7.05;;
67902;SDS011;54708;43.612;1.568;2023-06-14T01:24:16;8.43;;;5.55;;
67902;SDS011;54708;43.612;1.568;2023-06-14T01:26:44;7.20;;;6.47;;
67902;SDS011;54708;43.612;1.568;2023-06-14T01:29:11;7.18;;;6.03;;
67902;SDS011;54708;43.612;1.568;2023-06-14T01:31:41;9.23;;;5.97;;
67902;SDS011;54708;43.612;1.568;2023-06-14T01:34:07;7.47;;;5.70;;
67902;SDS011;54708;43.612;1.568;2023-06-14T01:36:33;7.95;;;6.75;;
67902;SDS011;54708;43.612;1.568;2023-06-14T01:39:00;9.15;;;7.15;;
67902;SDS011;54708;43.612;1.568;2023-06-14T01:41:26;11.63;;;6.85;;
67902;SDS011;54708;43.612;1.568;2023-06-14T01:43:52;10.02;;;7.10;;
67902;SDS011;54708;43.612;1.568;2023-06-14T01:46:17;8.60;;;7.32;;
67902;SDS011;54708;43.612;1.568;2023-06-14T01:48:44;11.60;;;7.10;;
67902;SDS011;54708;43.612;1.568;2023-06-14T01:51:09;10.25;;;7.35;;
67902;SDS011;54708;43.612;1.568;2023-06-14T01:53:35;9.82;;;7.88;;
67902;SDS011;54708;43.612;1.568;2023-06-14T01:56:01;11.77;;;7.35;;
67902;SDS011;54708;43.612;1.568;2023-06-14T01:58:26;18.80;;;8.00;;
67902;SDS011;54708;43.612;1.568;2023-06-14T02:00:52;11.55;;;8.27;;
67902;SDS011;54708;43.612;1.568;2023-06-14T02:03:20;10.30;;;8.23;;
67902;SDS011;54708;43.612;1.568;2023-06-14T02:05:46;13.52;;;7.55;;
67902;SDS011;54708;43.612;1.568;2023-06-14T02:08:11;10.20;;;8.55;;
67902;SDS011;54708;43.612;1.568;2023-06-14T02:10:36;10.30;;;7.80;;
67902;SDS011;54708;43.612;1.568;2023-06-14T02:13:02;11.57;;;8.25;;
67902;SDS011;54708;43.612;1.568;2023-06-14T02:15:27;10.13;;;8.02;;
67902;SDS011;54708;43.612;1.568;2023-06-14T02:17:58;9.30;;;7.30;;
67902;SDS011;54708;43.612;1.568;2023-06-14T02:20:24;8.15;;;7.28;;
67902;SDS011;54708;43.612;1.568;2023-06-14T02:22:49;12.38;;;7.57;;
67902;SDS011;54708;43.612;1.568;2023-06-14T02:25:14;12.32;;;7.90;;
67902;SDS011;54708;43.612;1.568;2023-06-14T02:27:40;11.52;;;7.75;;
67902;SDS011;54708;43.612;1.568;2023-06-14T02:30:05;9.63;;;7.80;;
67902;SDS011;54708;43.612;1.568;2023-06-14T02:32:32;12.80;;;7.75;;
67902;SDS011;54708;43.612;1.568;2023-06-14T02:35:00;12.57;;;7.72;;
67902;SDS011;54708;43.612;1.568;2023-06-14T02:37:26;10.57;;;7.75;;
67902;SDS011;54708;43.612;1.568;2023-06-14T02:39:51;10.95;;;7.82;;
67902;SDS011;54708;43.612;1.568;2023-06-14T02:42:16;11.00;;;8.02;;
67902;SDS011;54708;43.612;1.568;2023-06-14T02:44:42;10.05;;;7.35;;
67902;SDS011;54708;43.612;1.568;2023-06-14T02:47:08;8.73;;;7.65;;
67902;SDS011;54708;43.612;1.568;2023-06-14T02:49:33;10.30;;;8.68;;
67902;SDS011;54708;43.612;1.568;2023-06-14T02:51:59;12.07;;;8.75;;
67902;SDS011;54708;43.612;1.568;2023-06-14T02:54:25;12.10;;;7.75;;
67902;SDS011;54708;43.612;1.568;2023-06-14T02:56:50;11.88;;;8.63;;
67902;SDS011;54708;43.612;1.568;2023-06-14T02:59:15;9.55;;;8.23;;
67902;SDS011;54708;43.612;1.568;2023-06-14T03:01:42;9.88;;;7.82;;
67902;SDS011;54708;43.612;1.568;2023-06-14T03:04:08;11.88;;;8.50;;
67902;SDS011;54708;43.612;1.568;2023-06-14T03:06:33;10.48;;;7.78;;
67902;SDS011;54708;43.612;1.568;2023-06-14T03:08:59;13.35;;;7.72;;
67902;SDS011;54708;43.612;1.568;2023-06-14T03:11:29;10.38;;;8.35;;
67902;SDS011;54708;43.612;1.568;2023-06-14T03:13:54;9.50;;;8.20;;
67902;SDS011;54708;43.612;1.568;2023-06-14T03:16:21;10.68;;;8.00;;
67902;SDS011;54708;43.612;1.568;2023-06-14T03:18:49;11.13;;;7.75;;
67902;SDS011;54708;43.612;1.568;2023-06-14T03:21:15;11.95;;;8.35;;
67902;SDS011;54708;43.612;1.568;2023-06-14T03:23:41;9.68;;;7.47;;
67902;SDS011;54708;43.612;1.568;2023-06-14T03:26:07;11.50;;;7.50;;
67902;SDS011;54708;43.612;1.568;2023-06-14T03:28:33;9.38;;;7.30;;
67902;SDS011;54708;43.612;1.568;2023-06-14T03:30:58;9.23;;;7.90;;
67902;SDS011;54708;43.612;1.568;2023-06-14T03:33:24;13.38;;;7.93;;
67902;SDS011;54708;43.612;1.568;2023-06-14T03:35:50;11.05;;;7.25;;
67902;SDS011;54708;43.612;1.568;2023-06-14T03:38:16;13.77;;;7.57;;
67902;SDS011;54708;43.612;1.568;2023-06-14T03:40:42;11.52;;;7.30;;
67902;SDS011;54708;43.612;1.568;2023-06-14T03:43:07;8.05;;;7.03;;
67902;SDS011;54708;43.612;1.568;2023-06-14T03:45:33;10.57;;;7.15;;
67902;SDS011;54708;43.612;1.568;2023-06-14T03:47:58;10.35;;;7.55;;
67902;SDS011;54708;43.612;1.568;2023-06-14T03:50:25;11.90;;;7.55;;
67902;SDS011;54708;43.612;1.568;2023-06-14T03:52:52;10.45;;;6.75;;
67902;SDS011;54708;43.612;1.568;2023-06-14T03:55:17;10.27;;;6.70;;
67902;SDS011;54708;43.612;1.568;2023-06-14T03:57:42;9.50;;;6.00;;
67902;SDS011;54708;43.612;1.568;2023-06-14T04:00:08;9.60;;;6.30;;
67902;SDS011;54708;43.612;1.568;2023-06-14T04:02:34;9.13;;;6.18;;
67902;SDS011;54708;43.612;1.568;2023-06-14T04:05:01;9.98;;;6.45;;
67902;SDS011;54708;43.612;1.568;2023-06-14T04:07:27;9.95;;;6.30;;
67902;SDS011;54708;43.612;1.568;2023-06-14T04:09:53;10.48;;;6.22;;
67902;SDS011;54708;43.612;1.568;2023-06-14T04:12:18;7.47;;;6.18;;
67902;SDS011;54708;43.612;1.568;2023-06-14T04:14:44;8.88;;;6.13;;
67902;SDS011;54708;43.612;1.568;2023-06-14T04:17:09;11.02;;;5.95;;
67902;SDS011;54708;43.612;1.568;2023-06-14T04:19:35;9.40;;;6.60;;
67902;SDS011;54708;43.612;1.568;2023-06-14T04:22:00;8.70;;;6.80;;
67902;SDS011;54708;43.612;1.568;2023-06-14T04:24:27;7.03;;;6.03;;
67902;SDS011;54708;43.612;1.568;2023-06-14T04:26:57;9.75;;;6.55;;
67902;SDS011;54708;43.612;1.568;2023-06-14T04:29:26;8.27;;;6.35;;
67902;SDS011;54708;43.612;1.568;2023-06-14T04:31:51;8.80;;;6.53;;
67902;SDS011;54708;43.612;1.568;2023-06-14T04:34:18;11.88;;;7.68;;
67902;SDS011;54708;43.612;1.568;2023-06-14T04:36:44;7.63;;;6.88;;
67902;SDS011;54708;43.612;1.568;2023-06-14T04:39:21;13.00;;;8.73;;
67902;SDS011;54708;43.612;1.568;2023-06-14T04:41:47;13.25;;;8.60;;
67902;SDS011;54708;43.612;1.568;2023-06-14T04:44:16;15.35;;;8.27;;
67902;SDS011;54708;43.612;1.568;2023-06-14T04:46:43;13.00;;;9.68;;
67902;SDS011;54708;43.612;1.568;2023-06-14T04:49:14;16.98;;;11.18;;
67902;SDS011;54708;43.612;1.568;2023-06-14T04:51:43;17.55;;;11.50;;
67902;SDS011;54708;43.612;1.568;2023-06-14T04:54:09;18.40;;;11.68;;
67902;SDS011;54708;43.612;1.568;2023-06-14T04:56:39;12.95;;;10.02;;
67902;SDS011;54708;43.612;1.568;2023-06-14T04:59:05;14.95;;;11.38;;
67902;SDS011;54708;43.612;1.568;2023-06-14T05:01:30;15.23;;;11.82;;
67902;SDS011;54708;43.612;1.568;2023-06-14T05:03:59;18.13;;;12.50;;
67902;SDS011;54708;43.612;1.568;2023-06-14T05:06:25;16.55;;;12.00;;
67902;SDS011;54708;43.612;1.568;2023-06-14T05:08:52;20.35;;;11.90;;
67902;SDS011;54708;43.612;1.568;2023-06-14T05:11:18;20.23;;;12.30;;
67902;SDS011;54708;43.612;1.568;2023-06-14T05:13:43;20.52;;;13.13;;
67902;SDS011;54708;43.612;1.568;2023-06-14T05:16:09;16.90;;;12.68;;
67902;SDS011;54708;43.612;1.568;2023-06-14T05:18:36;18.17;;;13.02;;
67902;SDS011;54708;43.612;1.568;2023-06-14T05:21:02;20.25;;;13.85;;
67902;SDS011;54708;43.612;1.568;2023-06-14T05:23:29;17.77;;;13.30;;
67902;SDS011;54708;43.612;1.568;2023-06-14T05:25:55;18.38;;;13.45;;
67902;SDS011;54708;43.612;1.568;2023-06-14T05:28:21;19.10;;;13.23;;
67902;SDS011;54708;43.612;1.568;2023-06-14T05:30:47;17.60;;;13.77;;
67902;SDS011;54708;43.612;1.568;2023-06-14T05:33:12;26.00;;;14.00;;
67902;SDS011;54708;43.612;1.568;2023-06-14T05:35:37;21.58;;;14.13;;
67902;SDS011;54708;43.612;1.568;2023-06-14T05:38:03;24.83;;;14.65;;
67902;SDS011;54708;43.612;1.568;2023-06-14T05:40:28;22.80;;;16.75;;
67902;SDS011;54708;43.612;1.568;2023-06-14T05:42:54;21.15;;;14.32;;
67902;SDS011;54708;43.612;1.568;2023-06-14T05:45:19;23.13;;;14.95;;
67902;SDS011;54708;43.612;1.568;2023-06-14T05:47:45;22.05;;;16.20;;
67902;SDS011;54708;43.612;1.568;2023-06-14T05:50:10;21.75;;;15.75;;
67902;SDS011;54708;43.612;1.568;2023-06-14T05:52:36;26.33;;;16.58;;
67902;SDS011;54708;43.612;1.568;2023-06-14T05:55:02;23.00;;;15.73;;
67902;SDS011;54708;43.612;1.568;2023-06-14T05:57:28;21.42;;;15.35;;
67902;SDS011;54708;43.612;1.568;2023-06-14T05:59:54;23.67;;;17.05;;
67902;SDS011;54708;43.612;1.568;2023-06-14T06:02:19;22.48;;;17.00;;
67902;SDS011;54708;43.612;1.568;2023-06-14T06:04:45;22.17;;;16.98;;
67902;SDS011;54708;43.612;1.568;2023-06-14T06:07:10;27.88;;;17.05;;
67902;SDS011;54708;43.612;1.568;2023-06-14T06:09:35;34.60;;;19.55;;
67902;SDS011;54708;43.612;1.568;2023-06-14T06:12:01;26.90;;;17.05;;
67902;SDS011;54708;43.612;1.568;2023-06-14T06:14:26;28.27;;;17.42;;
67902;SDS011;54708;43.612;1.568;2023-06-14T06:16:53;24.08;;;17.13;;
67902;SDS011;54708;43.612;1.568;2023-06-14T06:19:18;27.15;;;16.92;;
67902;SDS011;54708;43.612;1.568;2023-06-14T06:21:44;30.38;;;17.90;;
67902;SDS011;54708;43.612;1.568;2023-06-14T06:24:09;26.13;;;18.27;;
67902;SDS011;54708;43.612;1.568;2023-06-14T06:26:35;26.35;;;17.33;;
67902;SDS011;54708;43.612;1.568;2023-06-14T06:29:00;28.48;;;17.75;;
67902;SDS011;54708;43.612;1.568;2023-06-14T06:31:25;26.15;;;17.45;;
67902;SDS011;54708;43.612;1.568;2023-06-14T06:33:52;27.08;;;19.63;;
67902;SDS011;54708;43.612;1.568;2023-06-14T06:36:19;26.63;;;19.23;;
67902;SDS011;54708;43.612;1.568;2023-06-14T06:38:45;25.85;;;19.00;;
67902;SDS011;54708;43.612;1.568;2023-06-14T06:41:11;24.92;;;19.48;;
67902;SDS011;54708;43.612;1.568;2023-06-14T06:43:36;32.22;;;18.67;;
67902;SDS011;54708;43.612;1.568;2023-06-14T06:46:01;26.23;;;17.65;;
67902;SDS011;54708;43.612;1.568;2023-06-14T06:48:27;34.75;;;18.15;;
67902;SDS011;54708;43.612;1.568;2023-06-14T06:50:53;30.95;;;18.50;;
67902;SDS011;54708;43.612;1.568;2023-06-14T06:53:19;26.73;;;18.15;;
67902;SDS011;54708;43.612;1.568;2023-06-14T06:55:45;28.30;;;19.15;;
67902;SDS011;54708;43.612;1.568;2023-06-14T06:58:11;28.70;;;19.25;;
67902;SDS011;54708;43.612;1.568;2023-06-14T07:00:37;38.60;;;19.83;;
67902;SDS011;54708;43.612;1.568;2023-06-14T07:03:02;26.45;;;18.65;;
67902;SDS011;54708;43.612;1.568;2023-06-14T07:05:29;28.25;;;18.70;;
67902;SDS011;54708;43.612;1.568;2023-06-14T07:07:54;33.10;;;19.40;;
67902;SDS011;54708;43.612;1.568;2023-06-14T07:10:20;34.88;;;20.42;;
67902;SDS011;54708;43.612;1.568;2023-06-14T07:12:45;27.00;;;18.35;;
67902;SDS011;54708;43.612;1.568;2023-06-14T07:15:11;26.40;;;18.08;;
67902;SDS011;54708;43.612;1.568;2023-06-14T07:17:36;35.40;;;20.40;;
67902;SDS011;54708;43.612;1.568;2023-06-14T07:20:02;29.65;;;17.83;;
67902;SDS011;54708;43.612;1.568;2023-06-14T07:22:32;30.25;;;18.80;;
67902;SDS011;54708;43.612;1.568;2023-06-14T07:24:57;27.67;;;18.77;;
67902;SDS011;54708;43.612;1.568;2023-06-14T07:27:23;25.25;;;20.45;;
67902;SDS011;54708;43.612;1.568;2023-06-14T07:29:48;27.17;;;19.00;;
67902;SDS011;54708;43.612;1.568;2023-06-14T07:32:14;31.88;;;18.80;;
67902;SDS011;54708;43.612;1.568;2023-06-14T07:34:39;32.22;;;19.95;;
67902;SDS011;54708;43.612;1.568;2023-06-14T07:37:04;32.42;;;20.48;;
67902;SDS011;54708;43.612;1.568;2023-06-14T07:39:30;30.55;;;19.77;;
67902;SDS011;54708;43.612;1.568;2023-06-14T07:41:55;38.22;;;22.70;;
67902;SDS011;54708;43.612;1.568;2023-06-14T07:44:20;27.45;;;19.58;;
67902;SDS011;54708;43.612;1.568;2023-06-14T07:46:46;27.50;;;19.13;;
67902;SDS011;54708;43.612;1.568;2023-06-14T07:49:14;25.27;;;19.27;;
67902;SDS011;54708;43.612;1.568;2023-06-14T07:51:39;31.92;;;20.58;;
67902;SDS011;54708;43.612;1.568;2023-06-14T07:54:05;27.55;;;18.88;;
67902;SDS011;54708;43.612;1.568;2023-06-14T07:56:32;31.38;;;21.15;;
67902;SDS011;54708;43.612;1.568;2023-06-14T07:58:57;31.85;;;20.58;;
67902;SDS011;54708;43.612;1.568;2023-06-14T08:01:23;30.42;;;19.77;;
67902;SDS011;54708;43.612;1.568;2023-06-14T08:03:50;31.10;;;19.85;;
67902;SDS011;54708;43.612;1.568;2023-06-14T08:06:15;26.17;;;18.25;;
67902;SDS011;54708;43.612;1.568;2023-06-14T08:08:41;28.63;;;19.05;;
67902;SDS011;54708;43.612;1.568;2023-06-14T08:11:06;26.05;;;18.92;;
67902;SDS011;54708;43.612;1.568;2023-06-14T08:13:31;27.63;;;18.42;;
67902;SDS011;54708;43.612;1.568;2023-06-14T08:15:57;29.27;;;19.77;;
67902;SDS011;54708;43.612;1.568;2023-06-14T08:18:23;29.90;;;21.05;;
67902;SDS011;54708;43.612;1.568;2023-06-14T08:20:48;27.88;;;19.75;;
67902;SDS011;54708;43.612;1.568;2023-06-14T08:23:15;25.98;;;17.70;;
67902;SDS011;54708;43.612;1.568;2023-06-14T08:25:44;24.15;;;18.45;;
67902;SDS011;54708;43.612;1.568;2023-06-14T08:28:09;24.05;;;17.85;;
67902;SDS011;54708;43.612;1.568;2023-06-14T08:30:35;30.00;;;17.60;;
67902;SDS011;54708;43.612;1.568;2023-06-14T08:33:00;29.17;;;18.88;;
67902;SDS011;54708;43.612;1.568;2023-06-14T08:35:26;29.33;;;19.02;;
67902;SDS011;54708;43.612;1.568;2023-06-14T08:37:51;25.77;;;16.70;;
67902;SDS011;54708;43.612;1.568;2023-06-14T08:40:20;26.92;;;17.20;;
67902;SDS011;54708;43.612;1.568;2023-06-14T08:42:51;28.80;;;17.23;;
67902;SDS011;54708;43.612;1.568;2023-06-14T08:45:18;25.98;;;17.20;;
67902;SDS011;54708;43.612;1.568;2023-06-14T08:47:47;26.75;;;17.58;;
67902;SDS011;54708;43.612;1.568;2023-06-14T08:50:18;21.60;;;16.75;;
67902;SDS011;54708;43.612;1.568;2023-06-14T08:52:45;22.90;;;16.13;;
67902;SDS011;54708;43.612;1.568;2023-06-14T08:55:14;22.45;;;15.38;;
67902;SDS011;54708;43.612;1.568;2023-06-14T08:57:42;21.75;;;17.20;;
67902;SDS011;54708;43.612;1.568;2023-06-14T09:00:08;25.73;;;16.13;;
67902;SDS011;54708;43.612;1.568;2023-06-14T09:02:38;24.58;;;16.02;;
67902;SDS011;54708;43.612;1.568;2023-06-14T09:05:09;22.90;;;16.55;;
67902;SDS011;54708;43.612;1.568;2023-06-14T09:07:35;20.15;;;14.68;;
67902;SDS011;54708;43.612;1.568;2023-06-14T09:10:13;23.55;;;14.43;;
67902;SDS011;54708;43.612;1.568;2023-06-14T09:12:39;23.95;;;15.40;;
67902;SDS011;54708;43.612;1.568;2023-06-14T09:15:05;26.15;;;14.45;;
67902;SDS011;54708;43.612;1.568;2023-06-14T09:17:33;22.33;;;15.38;;
67902;SDS011;54708;43.612;1.568;2023-06-14T09:19:59;22.92;;;15.20;;
67902;SDS011;54708;43.612;1.568;2023-06-14T09:22:25;15.65;;;13.15;;
67902;SDS011;54708;43.612;1.568;2023-06-14T09:24:50;19.10;;;13.60;;
67902;SDS011;54708;43.612;1.568;2023-06-14T09:27:16;17.92;;;12.75;;
67902;SDS011;54708;43.612;1.568;2023-06-14T09:29:41;23.48;;;15.07;;
67902;SDS011;54708;43.612;1.568;2023-06-14T09:32:07;20.17;;;15.02;;
67902;SDS011;54708;43.612;1.568;2023-06-14T09:34:32;15.95;;;13.45;;
67902;SDS011;54708;43.612;1.568;2023-06-14T09:36:59;16.48;;;13.88;;
67902;SDS011;54708;43.612;1.568;2023-06-14T09:39:25;23.63;;;14.15;;
67902;SDS011;54708;43.612;1.568;2023-06-14T09:41:50;24.45;;;13.98;;
67902;SDS011;54708;43.612;1.568;2023-06-14T09:44:16;21.35;;;13.45;;
67902;SDS011;54708;43.612;1.568;2023-06-14T09:46:43;18.80;;;13.23;;
67902;SDS011;54708;43.612;1.568;2023-06-14T09:49:09;23.40;;;13.43;;
67902;SDS011;54708;43.612;1.568;2023-06-14T09:51:34;17.75;;;14.13;;
67902;SDS011;54708;43.612;1.568;2023-06-14T09:54:02;16.98;;;12.63;;
67902;SDS011;54708;43.612;1.568;2023-06-14T09:56:35;14.80;;;11.30;;
67902;SDS011;54708;43.612;1.568;2023-06-14T09:59:03;20.73;;;13.52;;
67902;SDS011;54708;43.612;1.568;2023-06-14T10:01:30;16.52;;;12.43;;
67902;SDS011;54708;43.612;1.568;2023-06-14T10:08:56;18.52;;;11.65;;
67902;SDS011;54708;43.612;1.568;2023-06-14T10:11:22;18.55;;;12.15;;
67902;SDS011;54708;43.612;1.568;2023-06-14T10:13:48;18.80;;;11.98;;
67902;SDS011;54708;43.612;1.568;2023-06-14T10:16:16;17.05;;;11.90;;
67902;SDS011;54708;43.612;1.568;2023-06-14T10:21:22;18.53;;;13.47;;
67902;SDS011;54708;43.612;1.568;2023-06-14T10:23:51;16.95;;;13.02;;
67902;SDS011;54708;43.612;1.568;2023-06-14T10:26:20;14.80;;;12.00;;
67902;SDS011;54708;43.612;1.568;2023-06-14T10:28:56;20.85;;;11.93;;
67902;SDS011;54708;43.612;1.568;2023-06-14T10:31:30;18.52;;;12.18;;
67902;SDS011;54708;43.612;1.568;2023-06-14T10:34:05;16.20;;;11.82;;
67902;SDS011;54708;43.612;1.568;2023-06-14T10:36:31;19.08;;;12.27;;
67902;SDS011;54708;43.612;1.568;2023-06-14T10:39:04;14.65;;;11.60;;
67902;SDS011;54708;43.612;1.568;2023-06-14T10:41:30;18.67;;;11.95;;
67902;SDS011;54708;43.612;1.568;2023-06-14T10:46:39;19.95;;;12.73;;
67902;SDS011;54708;43.612;1.568;2023-06-14T10:49:05;15.02;;;11.40;;
67902;SDS011;54708;43.612;1.568;2023-06-14T10:51:38;14.38;;;11.88;;
67902;SDS011;54708;43.612;1.568;2023-06-14T10:54:11;14.65;;;11.00;;
67902;SDS011;54708;43.612;1.568;2023-06-14T10:56:47;16.48;;;11.45;;
67902;SDS011;54708;43.612;1.568;2023-06-14T10:59:13;19.27;;;11.98;;
67902;SDS011;54708;43.612;1.568;2023-06-14T11:04:14;11.98;;;10.77;;
67902;SDS011;54708;43.612;1.568;2023-06-14T11:09:18;17.85;;;11.15;;
67902;SDS011;54708;43.612;1.568;2023-06-14T11:12:06;15.38;;;11.07;;
67902;SDS011;54708;43.612;1.568;2023-06-14T11:14:35;13.70;;;10.80;;
67902;SDS011;54708;43.612;1.568;2023-06-14T11:17:01;14.48;;;10.35;;
67902;SDS011;54708;43.612;1.568;2023-06-14T11:19:26;13.45;;;10.82;;
67902;SDS011;54708;43.612;1.568;2023-06-14T11:21:54;19.85;;;11.77;;
67902;SDS011;54708;43.612;1.568;2023-06-14T11:24:19;16.60;;;10.52;;
67902;SDS011;54708;43.612;1.568;2023-06-14T11:26:46;19.63;;;11.45;;
67902;SDS011;54708;43.612;1.568;2023-06-14T11:29:12;11.52;;;10.35;;
67902;SDS011;54708;43.612;1.568;2023-06-14T11:31:42;14.63;;;10.20;;
67902;SDS011;54708;43.612;1.568;2023-06-14T11:34:09;10.57;;;9.00;;
67902;SDS011;54708;43.612;1.568;2023-06-14T11:36:35;15.40;;;10.00;;
67902;SDS011;54708;43.612;1.568;2023-06-14T11:39:04;11.50;;;10.02;;
67902;SDS011;54708;43.612;1.568;2023-06-14T11:41:35;10.45;;;8.18;;
67902;SDS011;54708;43.612;1.568;2023-06-14T11:44:05;14.13;;;9.52;;
67902;SDS011;54708;43.612;1.568;2023-06-14T11:46:32;12.13;;;9.70;;
67902;SDS011;54708;43.612;1.568;2023-06-14T11:48:57;13.50;;;9.93;;
67902;SDS011;54708;43.612;1.568;2023-06-14T11:51:23;9.80;;;8.85;;
67902;SDS011;54708;43.612;1.568;2023-06-14T11:53:48;12.63;;;9.60;;
67902;SDS011;54708;43.612;1.568;2023-06-14T11:56:14;11.82;;;8.75;;
67902;SDS011;54708;43.612;1.568;2023-06-14T11:58:40;13.27;;;9.40;;
67902;SDS011;54708;43.612;1.568;2023-06-14T12:01:08;10.80;;;8.82;;
67902;SDS011;54708;43.612;1.568;2023-06-14T12:03:33;12.60;;;8.73;;
67902;SDS011;54708;43.612;1.568;2023-06-14T12:06:07;13.43;;;8.63;;
67902;SDS011;54708;43.612;1.568;2023-06-14T12:08:36;10.95;;;9.15;;
67902;SDS011;54708;43.612;1.568;2023-06-14T12:11:14;13.95;;;9.60;;
67902;SDS011;54708;43.612;1.568;2023-06-14T12:13:40;13.40;;;9.30;;
67902;SDS011;54708;43.612;1.568;2023-06-14T12:16:07;11.55;;;9.55;;
67902;SDS011;54708;43.612;1.568;2023-06-14T12:18:34;11.25;;;9.35;;
67902;SDS011;54708;43.612;1.568;2023-06-14T12:21:00;10.90;;;8.60;;
67902;SDS011;54708;43.612;1.568;2023-06-14T12:23:41;12.23;;;9.15;;
67902;SDS011;54708;43.612;1.568;2023-06-14T12:26:08;10.52;;;8.25;;
67902;SDS011;54708;43.612;1.568;2023-06-14T12:28:33;11.02;;;9.57;;
67902;SDS011;54708;43.612;1.568;2023-06-14T12:30:58;12.88;;;8.88;;
67902;SDS011;54708;43.612;1.568;2023-06-14T12:33:24;13.10;;;8.25;;
67902;SDS011;54708;43.612;1.568;2023-06-14T12:35:50;16.92;;;9.65;;
67902;SDS011;54708;43.612;1.568;2023-06-14T12:38:16;11.43;;;8.07;;
67902;SDS011;54708;43.612;1.568;2023-06-14T12:40:41;11.38;;;8.85;;
67902;SDS011;54708;43.612;1.568;2023-06-14T12:43:07;13.27;;;8.65;;
67902;SDS011;54708;43.612;1.568;2023-06-14T12:45:33;10.45;;;8.55;;
67902;SDS011;54708;43.612;1.568;2023-06-14T12:47:58;15.30;;;9.95;;
67902;SDS011;54708;43.612;1.568;2023-06-14T12:50:23;10.68;;;8.07;;
67902;SDS011;54708;43.612;1.568;2023-06-14T12:52:49;11.70;;;8.57;;
67902;SDS011;54708;43.612;1.568;2023-06-14T12:55:14;14.07;;;8.40;;
67902;SDS011;54708;43.612;1.568;2023-06-14T12:57:39;11.50;;;8.40;;
67902;SDS011;54708;43.612;1.568;2023-06-14T13:00:05;13.80;;;8.90;;
67902;SDS011;54708;43.612;1.568;2023-06-14T13:02:32;10.63;;;7.75;;
67902;SDS011;54708;43.612;1.568;2023-06-14T13:04:58;11.77;;;9.15;;
67902;SDS011;54708;43.612;1.568;2023-06-14T13:07:24;12.52;;;8.23;;
67902;SDS011;54708;43.612;1.568;2023-06-14T13:09:49;12.57;;;8.95;;
67902;SDS011;54708;43.612;1.568;2023-06-14T13:12:15;8.95;;;7.43;;
67902;SDS011;54708;43.612;1.568;2023-06-14T13:14:40;11.75;;;8.07;;
67902;SDS011;54708;43.612;1.568;2023-06-14T13:17:07;10.80;;;8.00;;
67902;SDS011;54708;43.612;1.568;2023-06-14T13:19:33;9.85;;;8.18;;
67902;SDS011;54708;43.612;1.568;2023-06-14T13:21:59;9.95;;;8.23;;
67902;SDS011;54708;43.612;1.568;2023-06-14T13:24:24;11.95;;;7.93;;
67902;SDS011;54708;43.612;1.568;2023-06-14T13:26:50;11.93;;;8.80;;
67902;SDS011;54708;43.612;1.568;2023-06-14T13:29:15;9.43;;;7.32;;
67902;SDS011;54708;43.612;1.568;2023-06-14T13:31:41;17.30;;;8.27;;
67902;SDS011;54708;43.612;1.568;2023-06-14T13:34:06;8.02;;;7.22;;
67902;SDS011;54708;43.612;1.568;2023-06-14T13:36:32;11.77;;;8.55;;
67902;SDS011;54708;43.612;1.568;2023-06-14T13:38:57;10.80;;;8.10;;
67902;SDS011;54708;43.612;1.568;2023-06-14T13:41:25;12.05;;;7.97;;
67902;SDS011;54708;43.612;1.568;2023-06-14T13:43:56;10.80;;;7.43;;
67902;SDS011;54708;43.612;1.568;2023-06-14T13:46:22;13.45;;;6.68;;
67902;SDS011;54708;43.612;1.568;2023-06-14T13:48:47;8.55;;;7.68;;
67902;SDS011;54708;43.612;1.568;2023-06-14T13:51:13;8.02;;;7.22;;
67902;SDS011;54708;43.612;1.568;2023-06-14T13:53:38;12.93;;;7.75;;
67902;SDS011;54708;43.612;1.568;2023-06-14T13:56:04;22.05;;;8.82;;
67902;SDS011;54708;43.612;1.568;2023-06-14T13:58:30;13.27;;;8.77;;
67902;SDS011;54708;43.612;1.568;2023-06-14T14:00:55;10.25;;;7.43;;
67902;SDS011;54708;43.612;1.568;2023-06-14T14:03:20;10.85;;;7.97;;
67902;SDS011;54708;43.612;1.568;2023-06-14T14:05:46;14.20;;;8.77;;
67902;SDS011;54708;43.612;1.568;2023-06-14T14:08:11;13.63;;;9.02;;
67902;SDS011;54708;43.612;1.568;2023-06-14T14:10:37;13.70;;;8.57;;
67902;SDS011;54708;43.612;1.568;2023-06-14T14:13:03;9.18;;;8.27;;
67902;SDS011;54708;43.612;1.568;2023-06-14T14:15:28;11.65;;;8.38;;
67902;SDS011;54708;43.612;1.568;2023-06-14T14:17:54;13.45;;;8.45;;
67902;SDS011;54708;43.612;1.568;2023-06-14T14:20:22;12.52;;;8.20;;
67902;SDS011;54708;43.612;1.568;2023-06-14T14:22:48;14.45;;;8.95;;
67902;SDS011;54708;43.612;1.568;2023-06-14T14:25:13;9.35;;;8.20;;
67902;SDS011;54708;43.612;1.568;2023-06-14T14:27:39;14.38;;;9.32;;
67902;SDS011;54708;43.612;1.568;2023-06-14T14:30:05;10.77;;;9.23;;
67902;SDS011;54708;43.612;1.568;2023-06-14T14:32:31;11.98;;;9.50;;
67902;SDS011;54708;43.612;1.568;2023-06-14T14:34:56;10.25;;;8.63;;
67902;SDS011;54708;43.612;1.568;2023-06-14T14:37:21;11.52;;;9.10;;
67902;SDS011;54708;43.612;1.568;2023-06-14T14:39:47;14.52;;;8.73;;
67902;SDS011;54708;43.612;1.568;2023-06-14T14:42:12;10.77;;;8.77;;